Time;durP1;ratioP1;P1;durP2;ratioP2;P2;SDS_P1;SDS_P2;PMS_P1;PMS_P2;Temp;Humidity;BMP_temperature;BMP_pressure;BME280_temperature;BME280_humidity;BME280_pressure;Samples;Min_cycle;Max_cycle;Signal;HPM_P1;HPM_P2
2023/10/03 00:01:13;;;;;;;24.95;10.75;;;20.20;99.90;;;;;;5991882;23;44780;-54
2023/10/03 00:03:43;;;;;;;18.25;8.40;;;20.20;99.90;;;;;;5947176;23;44628;-54
2023/10/03 00:06:22;;;;;;;23.52;10.63;;;20.20;99.90;;;;;;5915415;23;46213;-54
2023/10/03 00:09:08;;;;;;;21.77;9.93;;;20.20;99.90;;;;;;5920282;23;44735;-54
2023/10/03 00:11:54;;;;;;;27.02;11.13;;;20.20;99.90;;;;;;5918063;23;45060;-54
2023/10/03 00:14:39;;;;;;;22.17;10.80;;;20.20;99.90;;;;;;5905622;23;44923;-54
2023/10/03 00:17:06;;;;;;;26.98;11.48;;;20.20;99.90;;;;;;5882231;23;46179;-54
2023/10/03 00:19:43;;;;;;;23.80;10.10;;;20.30;99.90;;;;;;5875943;23;45096;-54
2023/10/03 00:22:19;;;;;;;22.15;9.32;;;20.20;99.90;;;;;;5916176;23;44697;-54
2023/10/03 00:24:46;;;;;;;25.67;10.65;;;20.30;99.90;;;;;;5877528;23;44920;-54
2023/10/03 00:27:15;;;;;;;25.25;10.20;;;20.40;99.90;;;;;;5916340;23;46168;-54
2023/10/03 00:29:45;;;;;;;18.20;8.73;;;20.20;99.90;;;;;;5928337;23;45111;-54
2023/10/03 00:32:15;;;;;;;21.52;9.85;;;20.30;99.90;;;;;;5932360;23;44696;-54
2023/10/03 00:34:50;;;;;;;21.13;9.65;;;20.40;99.90;;;;;;5876429;23;45006;-54
2023/10/03 00:37:26;;;;;;;19.92;8.63;;;20.40;99.90;;;;;;5896681;23;46701;-54
2023/10/03 00:42:36;;;;;;;23.63;10.20;;;20.20;99.90;;;;;;5880483;23;44620;-54
2023/10/03 00:45:03;;;;;;;22.30;10.10;;;20.30;99.90;;;;;;5883793;23;45199;-54
2023/10/03 00:47:43;;;;;;;23.52;10.23;;;20.30;99.90;;;;;;5918998;23;45750;-54
2023/10/03 00:50:26;;;;;;;26.17;10.57;;;20.30;99.90;;;;;;5880248;23;44743;-54
2023/10/03 00:53:09;;;;;;;18.73;8.73;;;20.30;99.90;;;;;;5880046;23;44717;-54
2023/10/03 00:55:49;;;;;;;27.30;11.40;;;20.30;99.90;;;;;;5891131;23;44823;-54
2023/10/03 00:58:30;;;;;;;20.00;9.63;;;20.20;99.90;;;;;;5879531;23;46283;-54
2023/10/03 01:01:00;;;;;;;26.08;11.90;;;20.20;99.90;;;;;;5920536;23;44683;-54
2023/10/03 01:03:30;;;;;;;29.67;13.15;;;20.20;99.90;;;;;;5875368;23;44968;-54
2023/10/03 01:06:29;;;;;;;23.27;10.60;;;20.10;99.90;;;;;;5894583;23;44947;-54
2023/10/03 01:09:00;;;;;;;26.30;11.88;;;20.10;99.90;;;;;;5884474;23;46176;-54
2023/10/03 01:11:29;;;;;;;29.10;11.48;;;20.00;99.90;;;;;;5897490;23;44813;-54
2023/10/03 01:13:59;;;;;;;25.58;11.43;;;20.00;99.90;;;;;;5900386;23;44881;-54
2023/10/03 01:16:31;;;;;;;30.13;12.23;;;20.00;99.90;;;;;;5939549;23;45075;-54
2023/10/03 01:19:45;;;;;;;26.58;10.07;;;20.10;99.90;;;;;;5935248;23;45528;-54
2023/10/03 01:22:18;;;;;;;30.20;13.07;;;20.10;99.90;;;;;;5959558;23;44708;-52
2023/10/03 01:24:48;;;;;;;25.13;12.18;;;20.10;99.90;;;;;;5903667;23;44765;-52
2023/10/03 01:27:16;;;;;;;27.38;11.45;;;20.00;99.90;;;;;;5931678;23;44730;-52
2023/10/03 01:29:52;;;;;;;32.20;12.32;;;20.00;99.90;;;;;;5914926;23;45125;-52
2023/10/03 01:32:41;;;;;;;26.55;11.23;;;20.00;99.90;;;;;;5947443;23;44779;-52
2023/10/03 01:35:35;;;;;;;29.23;12.68;;;20.00;99.90;;;;;;5931936;23;45002;-52
2023/10/03 01:38:05;;;;;;;20.77;9.57;;;19.90;99.90;;;;;;5974651;23;44943;-52
2023/10/03 01:41:00;;;;;;;29.00;10.32;;;19.90;99.90;;;;;;5928688;23;46336;-52
2023/10/03 01:43:29;;;;;;;24.25;10.88;;;20.10;99.90;;;;;;5943171;23;44719;-52
2023/10/03 01:45:59;;;;;;;27.98;11.60;;;20.20;99.90;;;;;;5959461;23;44753;-52
2023/10/03 01:48:42;;;;;;;23.63;9.90;;;20.00;99.90;;;;;;5941469;23;44758;-52
2023/10/03 01:51:37;;;;;;;27.92;11.80;;;20.10;99.90;;;;;;5974407;23;46485;-52
2023/10/03 01:54:05;;;;;;;26.85;11.80;;;20.00;99.90;;;;;;5920076;23;45243;-52
2023/10/03 01:56:34;;;;;;;24.95;11.25;;;19.90;99.90;;;;;;5927205;23;44700;-52
2023/10/03 01:59:04;;;;;;;32.42;13.10;;;19.90;99.90;;;;;;5939579;23;45034;-52
2023/10/03 02:01:44;;;;;;;24.52;10.65;;;19.90;99.90;;;;;;5922082;23;46654;-53
2023/10/03 02:04:12;;;;;;;28.30;13.13;;;19.80;99.90;;;;;;5908682;23;45241;-54
2023/10/03 02:07:18;;;;;;;27.08;11.43;;;19.80;99.90;;;;;;5934009;23;44810;-54
2023/10/03 02:09:45;;;;;;;26.30;10.98;;;19.80;99.90;;;;;;5873140;23;44858;-54
2023/10/03 02:12:14;;;;;;;27.98;13.18;;;19.70;99.90;;;;;;5895564;23;45219;-54
2023/10/03 02:14:43;;;;;;;22.58;10.57;;;19.80;99.90;;;;;;5940204;23;45112;-54
2023/10/03 02:17:13;;;;;;;24.65;10.48;;;19.70;99.90;;;;;;5940433;23;44967;-54
2023/10/03 02:20:20;;;;;;;28.45;12.00;;;19.90;99.90;;;;;;5968891;23;44904;-54
2023/10/03 02:23:07;;;;;;;24.67;10.77;;;19.90;99.90;;;;;;5917118;23;45996;-54
2023/10/03 02:25:37;;;;;;;17.75;8.32;;;20.10;99.90;;;;;;5914454;23;44824;-54
2023/10/03 02:28:15;;;;;;;29.42;11.45;;;20.20;99.90;;;;;;5914256;23;44654;-54
2023/10/03 02:30:47;;;;;;;25.17;10.25;;;20.10;99.90;;;;;;5955967;23;45283;-54
2023/10/03 02:33:26;;;;;;;25.33;10.82;;;20.10;99.90;;;;;;5895297;23;47047;-54
2023/10/03 02:35:56;;;;;;;25.65;9.65;;;20.20;99.90;;;;;;5954661;23;45196;-54
2023/10/03 02:38:25;;;;;;;26.85;11.10;;;20.10;99.90;;;;;;5914808;23;45262;-54
2023/10/03 02:41:05;;;;;;;17.33;8.07;;;20.10;99.90;;;;;;5931037;23;45362;-54
2023/10/03 02:43:57;;;;;;;19.48;9.07;;;20.10;99.90;;;;;;5929887;23;46349;-54
2023/10/03 02:46:29;;;;;;;25.17;10.43;;;20.20;99.90;;;;;;5968563;23;44910;-54
2023/10/03 02:49:08;;;;;;;20.65;8.90;;;20.20;99.90;;;;;;5893341;23;45092;-54
2023/10/03 02:51:35;;;;;;;22.15;9.75;;;20.20;99.90;;;;;;5921281;23;45110;-54
2023/10/03 02:54:04;;;;;;;22.05;9.80;;;20.10;99.90;;;;;;5923676;23;46172;-54
2023/10/03 02:56:33;;;;;;;16.33;8.40;;;20.20;99.90;;;;;;5955556;23;44891;-54
2023/10/03 02:59:02;;;;;;;20.05;8.93;;;20.30;99.90;;;;;;5899440;23;44898;-54
2023/10/03 03:01:41;;;;;;;20.13;8.77;;;20.40;99.90;;;;;;5907524;23;45041;-53
2023/10/03 03:04:12;;;;;;;17.50;8.35;;;20.40;99.90;;;;;;5919928;23;45635;-54
2023/10/03 03:06:46;;;;;;;21.77;9.73;;;20.50;99.90;;;;;;5902466;23;44784;-54
2023/10/03 03:09:32;;;;;;;19.25;8.93;;;20.50;99.90;;;;;;5926276;23;44789;-54
2023/10/03 03:12:16;;;;;;;19.90;9.18;;;20.60;99.90;;;;;;5923486;23;44855;-54
2023/10/03 03:15:00;;;;;;;17.00;8.52;;;20.60;99.90;;;;;;5941045;23;46196;-54
2023/10/03 03:17:34;;;;;;;21.00;8.52;;;20.50;99.90;;;;;;5912043;23;44736;-54
2023/10/03 03:20:17;;;;;;;18.05;9.05;;;20.50;99.90;;;;;;5977062;23;44910;-54
2023/10/03 03:22:50;;;;;;;16.92;8.05;;;20.60;99.90;;;;;;5906464;23;44864;-54
2023/10/03 03:25:35;;;;;;;19.55;9.43;;;20.50;99.90;;;;;;5900164;23;45533;-54
2023/10/03 03:28:13;;;;;;;19.13;8.88;;;20.50;99.90;;;;;;5922737;23;44763;-54
2023/10/03 03:30:57;;;;;;;19.45;9.23;;;20.60;99.90;;;;;;5943902;23;44948;-54
2023/10/03 03:33:27;;;;;;;20.08;9.00;;;20.50;99.90;;;;;;5912298;23;44948;-54
2023/10/03 03:36:04;;;;;;;20.30;9.05;;;20.60;99.90;;;;;;5938649;23;45659;-54
2023/10/03 03:38:51;;;;;;;20.30;8.88;;;20.60;99.90;;;;;;5965436;23;44610;-54
2023/10/03 03:41:20;;;;;;;23.73;9.00;;;20.60;99.90;;;;;;5927089;23;45370;-54
2023/10/03 03:43:48;;;;;;;18.98;9.25;;;20.60;99.90;;;;;;5920228;23;44670;-54
2023/10/03 03:46:24;;;;;;;19.42;9.10;;;20.60;99.90;;;;;;5922390;23;45280;-54
2023/10/03 03:48:52;;;;;;;24.17;9.88;;;20.60;99.90;;;;;;5922761;23;44604;-54
2023/10/03 03:51:52;;;;;;;21.23;9.10;;;20.60;99.90;;;;;;5969480;23;44808;-54
2023/10/03 03:54:20;;;;;;;23.40;10.00;;;20.60;99.90;;;;;;5888753;23;44901;-54
2023/10/03 03:56:58;;;;;;;17.20;8.30;;;20.60;99.90;;;;;;5940137;23;45326;-54
2023/10/03 03:59:28;;;;;;;19.70;8.57;;;20.70;99.90;;;;;;5878365;23;44848;-54
2023/10/03 04:02:00;;;;;;;18.02;8.13;;;20.60;99.90;;;;;;5933749;23;44725;-54
2023/10/03 04:04:29;;;;;;;15.40;7.22;;;20.60;99.90;;;;;;5962809;23;44993;-54
2023/10/03 04:06:55;;;;;;;19.98;7.53;;;20.60;99.90;;;;;;5899543;23;45779;-54
2023/10/03 04:09:23;;;;;;;16.90;7.35;;;20.50;99.90;;;;;;5915660;23;44782;-54
2023/10/03 04:11:52;;;;;;;21.98;7.95;;;20.50;99.90;;;;;;5906938;23;44986;-54
2023/10/03 04:14:19;;;;;;;20.45;6.97;;;20.40;99.90;;;;;;5924714;23;45056;-54
2023/10/03 04:16:51;;;;;;;15.27;6.43;;;20.30;99.90;;;;;;5906866;23;46236;-54
2023/10/03 04:19:30;;;;;;;15.02;6.38;;;20.40;99.90;;;;;;5878807;23;44889;-54
2023/10/03 04:21:58;;;;;;;23.20;7.32;;;20.40;99.90;;;;;;5908297;23;44858;-54
2023/10/03 04:24:29;;;;;;;15.23;6.30;;;20.50;99.90;;;;;;5891654;23;45069;-54
2023/10/03 04:27:17;;;;;;;20.23;6.30;;;20.50;99.90;;;;;;5916793;23;45405;-54
2023/10/03 04:29:52;;;;;;;23.85;6.80;;;20.60;99.90;;;;;;5890050;23;44870;-54
2023/10/03 04:32:19;;;;;;;20.38;7.15;;;20.70;99.90;;;;;;5900377;23;44895;-54
2023/10/03 04:34:49;;;;;;;25.10;7.80;;;20.80;99.90;;;;;;5899621;23;45076;-54
2023/10/03 04:37:17;;;;;;;19.20;6.65;;;20.90;99.90;;;;;;5927378;23;46646;-54
2023/10/03 04:39:47;;;;;;;18.95;6.15;;;20.90;99.90;;;;;;5906123;23;44967;-54
2023/10/03 04:42:14;;;;;;;16.17;6.35;;;20.90;99.90;;;;;;5904030;23;44883;-54
2023/10/03 04:44:53;;;;;;;21.20;6.70;;;20.90;99.90;;;;;;5919505;23;44623;-54
2023/10/03 04:47:25;;;;;;;15.73;6.78;;;20.90;99.90;;;;;;5912348;23;46188;-54
2023/10/03 04:50:01;;;;;;;12.65;5.63;;;20.90;99.90;;;;;;5868070;23;45066;-53
2023/10/03 04:52:29;;;;;;;12.45;6.05;;;21.00;99.90;;;;;;5872085;23;44753;-54
2023/10/03 04:54:57;;;;;;;11.60;5.35;;;21.10;99.90;;;;;;5856232;23;44881;-54
2023/10/03 04:57:29;;;;;;;14.88;6.20;;;21.10;99.90;;;;;;5848230;23;45193;-54
2023/10/03 04:59:56;;;;;;;12.13;5.60;;;21.10;99.90;;;;;;5859989;23;44766;-54
2023/10/03 05:02:25;;;;;;;17.13;7.13;;;21.10;99.90;;;;;;5874056;23;44855;-53
2023/10/03 05:05:07;;;;;;;17.65;7.00;;;21.00;99.90;;;;;;5903934;23;44618;-54
2023/10/03 05:07:35;;;;;;;16.50;6.97;;;21.00;99.90;;;;;;5890328;23;45460;-54
2023/10/03 05:10:03;;;;;;;18.10;7.70;;;20.80;99.90;;;;;;5880203;23;44873;-54
2023/10/03 05:12:31;;;;;;;17.00;7.15;;;20.80;99.90;;;;;;5892207;23;45032;-54
2023/10/03 05:15:07;;;;;;;16.30;7.20;;;20.70;99.90;;;;;;5857169;23;45086;-54
2023/10/03 05:17:37;;;;;;;25.73;7.72;;;20.70;99.90;;;;;;5872675;23;47634;-54
2023/10/03 05:20:08;;;;;;;19.90;7.65;;;20.70;99.90;;;;;;5886614;23;44824;-54
2023/10/03 05:22:37;;;;;;;16.90;7.05;;;20.60;99.90;;;;;;5942821;23;44805;-54
2023/10/03 05:25:13;;;;;;;19.02;7.13;;;20.60;99.90;;;;;;5877425;23;44725;-54
2023/10/03 05:27:53;;;;;;;26.30;7.40;;;20.60;99.90;;;;;;5861850;23;45803;-54
2023/10/03 05:30:23;;;;;;;21.67;7.13;;;20.50;99.90;;;;;;5862294;23;44902;-54
2023/10/03 05:32:55;;;;;;;19.13;7.32;;;20.50;99.90;;;;;;5886236;23;45386;-54
2023/10/03 05:35:52;;;;;;;19.50;7.90;;;20.50;99.90;;;;;;5901431;23;45030;-54
2023/10/03 05:38:20;;;;;;;30.83;7.22;;;20.40;99.90;;;;;;5893750;23;45677;-54
2023/10/03 05:40:48;;;;;;;17.27;6.68;;;20.50;99.90;;;;;;5888805;23;45319;-54
2023/10/03 05:43:15;;;;;;;27.23;7.07;;;20.50;99.90;;;;;;5895433;23;44773;-54
2023/10/03 05:45:49;;;;;;;20.25;7.25;;;20.40;99.90;;;;;;5942839;23;44683;-54
2023/10/03 05:48:25;;;;;;;22.88;7.05;;;20.40;99.90;;;;;;5900078;23;45861;-54
2023/10/03 05:51:12;;;;;;;19.40;6.28;;;20.40;99.90;;;;;;5878023;23;44791;-54
2023/10/03 05:53:40;;;;;;;23.35;7.35;;;20.40;99.90;;;;;;5860202;23;44832;-54
2023/10/03 05:56:11;;;;;;;21.80;6.53;;;20.30;99.90;;;;;;5922424;23;44796;-53
2023/10/03 05:58:39;;;;;;;15.30;6.93;;;20.30;99.90;;;;;;5892725;23;46964;-54
2023/10/03 06:01:12;;;;;;;22.65;6.93;;;20.30;99.90;;;;;;5893410;23;44991;-54
2023/10/03 06:04:00;;;;;;;22.05;6.93;;;20.30;99.90;;;;;;5895312;23;44790;-54
2023/10/03 06:06:38;;;;;;;15.98;6.88;;;20.20;99.90;;;;;;5883714;23;44922;-54
2023/10/03 06:09:05;;;;;;;21.88;6.28;;;20.30;99.90;;;;;;5882559;23;45881;-54
2023/10/03 06:11:33;;;;;;;23.08;6.55;;;20.20;99.90;;;;;;5899556;23;44874;-54
2023/10/03 06:14:00;;;;;;;21.17;6.70;;;20.20;99.90;;;;;;5875137;23;44942;-53
2023/10/03 06:16:28;;;;;;;26.30;6.57;;;20.20;99.90;;;;;;5912093;23;44708;-54
2023/10/03 06:18:56;;;;;;;17.17;6.63;;;20.20;99.90;;;;;;5893078;23;46630;-54
2023/10/03 06:21:26;;;;;;;27.05;6.30;;;20.20;99.90;;;;;;5923308;23;44884;-54
2023/10/03 06:23:58;;;;;;;23.25;6.13;;;20.10;99.90;;;;;;5896398;23;44808;-54
2023/10/03 06:26:47;;;;;;;16.52;6.10;;;20.10;99.90;;;;;;5900406;23;45150;-54
2023/10/03 06:29:15;;;;;;;19.20;6.55;;;20.00;99.90;;;;;;5923033;23;46194;-54
2023/10/03 06:31:56;;;;;;;15.50;5.40;;;20.00;99.90;;;;;;5958496;23;44643;-54
2023/10/03 06:34:38;;;;;;;17.33;5.70;;;20.00;99.90;;;;;;5967930;23;44869;-54
2023/10/03 06:37:27;;;;;;;19.20;5.53;;;20.00;99.90;;;;;;5969577;23;44852;-54
2023/10/03 06:39:56;;;;;;;19.98;5.78;;;20.00;99.90;;;;;;5901608;23;46679;-54
2023/10/03 06:42:39;;;;;;;19.80;5.47;;;20.00;99.90;;;;;;5951084;23;44719;-54
2023/10/03 06:45:15;;;;;;;22.40;5.70;;;19.90;99.90;;;;;;5894305;23;44835;-54
2023/10/03 06:47:42;;;;;;;15.43;5.68;;;19.90;99.90;;;;;;5894592;23;44851;-54
2023/10/03 06:50:11;;;;;;;17.58;5.40;;;19.90;99.90;;;;;;5937326;23;46213;-54
2023/10/03 06:52:41;;;;;;;15.20;5.50;;;19.90;99.90;;;;;;5949190;23;44836;-54
2023/10/03 06:55:15;;;;;;;16.42;5.15;;;19.80;99.90;;;;;;5909035;23;44912;-54
2023/10/03 06:58:00;;;;;;;14.73;5.28;;;19.80;99.90;;;;;;5896590;23;45239;-54
2023/10/03 07:00:31;;;;;;;16.33;4.82;;;19.80;99.90;;;;;;5945116;23;46779;-54
2023/10/03 07:03:04;;;;;;;11.73;4.35;;;19.80;99.90;;;;;;5914991;23;45269;-54
2023/10/03 07:05:34;;;;;;;11.60;3.92;;;19.80;99.90;;;;;;5920207;23;44706;-54
2023/10/03 07:08:07;;;;;;;9.35;3.83;;;19.80;99.90;;;;;;5876621;23;44983;-54
2023/10/03 07:13:19;;;;;;;15.23;4.05;;;19.80;99.90;;;;;;5878282;23;45017;-54
2023/10/03 07:16:18;;;;;;;11.00;4.00;;;19.80;99.90;;;;;;5914963;23;44967;-54
2023/10/03 07:18:46;;;;;;;8.40;3.20;;;19.80;99.90;;;;;;5913161;23;44933;-54
2023/10/03 07:21:15;;;;;;;15.43;4.00;;;19.80;99.90;;;;;;5901969;23;45637;-54
2023/10/03 07:23:51;;;;;;;14.13;4.18;;;19.80;99.90;;;;;;5884499;23;44945;-53
2023/10/03 07:26:34;;;;;;;12.63;4.07;;;19.80;99.90;;;;;;5910670;23;44755;-54
2023/10/03 07:29:29;;;;;;;11.13;3.63;;;19.70;99.90;;;;;;5938152;23;44818;-54
2023/10/03 07:31:56;;;;;;;8.98;3.35;;;19.70;99.90;;;;;;5908358;23;46316;-54
2023/10/03 07:34:24;;;;;;;9.90;3.55;;;19.80;99.90;;;;;;5923314;23;44687;-54
2023/10/03 07:39:48;;;;;;;7.82;3.17;;;19.90;99.90;;;;;;5866104;23;44809;-54
2023/10/03 07:43:02;;;;;;;8.57;3.47;;;20.00;99.90;;;;;;5910208;23;45643;-54
2023/10/03 07:45:31;;;;;;;10.52;3.30;;;20.00;99.90;;;;;;5931931;23;44825;-54
2023/10/03 07:48:04;;;;;;;12.57;3.70;;;20.00;99.90;;;;;;5891551;23;44708;-54
2023/10/03 07:50:37;;;;;;;8.35;3.55;;;20.00;99.90;;;;;;5939198;23;44727;-54
2023/10/03 07:53:11;;;;;;;6.68;3.70;;;20.10;99.90;;;;;;5941465;23;46035;-54
2023/10/03 07:55:50;;;;;;;8.95;3.30;;;20.10;99.90;;;;;;5907425;23;44827;-54
2023/10/03 07:58:33;;;;;;;11.18;3.50;;;20.00;99.90;;;;;;5937350;23;44679;-54
2023/10/03 08:01:04;;;;;;;9.73;3.63;;;19.90;99.90;;;;;;5928406;23;44682;-54
2023/10/03 08:06:49;;;;;;;8.48;3.78;;;19.90;99.90;;;;;;5962654;23;44780;-54
2023/10/03 08:09:24;;;;;;;12.45;3.40;;;19.90;99.90;;;;;;5930515;23;44846;-54
2023/10/03 08:11:58;;;;;;;11.48;4.00;;;19.90;99.90;;;;;;5904402;23;44892;-54
2023/10/03 08:14:35;;;;;;;12.82;3.85;;;20.00;99.90;;;;;;5885398;23;47224;-54
2023/10/03 08:19:56;;;;;;;9.38;3.47;;;20.10;99.90;;;;;;5959827;23;44718;-54
2023/10/03 08:22:51;;;;;;;12.57;3.83;;;20.10;99.90;;;;;;5957225;23;44807;-54
2023/10/03 08:25:41;;;;;;;11.18;3.40;;;20.00;99.90;;;;;;5928724;23;45755;-54
2023/10/03 08:28:20;;;;;;;9.68;3.38;;;20.00;99.90;;;;;;5930907;23;45643;-54
2023/10/03 08:31:22;;;;;;;8.55;3.90;;;20.00;99.90;;;;;;5980631;23;44703;-54
2023/10/03 08:33:55;;;;;;;10.85;3.22;;;20.00;99.90;;;;;;5897360;23;44680;-54
2023/10/03 08:37:06;;;;;;;9.32;2.95;;;19.90;99.90;;;;;;5982943;23;46301;-54
2023/10/03 08:42:34;;;;;;;8.88;3.42;;;20.00;99.90;;;;;;5924096;23;44803;-54
2023/10/03 08:45:16;;;;;;;8.27;3.03;;;20.00;99.90;;;;;;5918180;23;44956;-54
2023/10/03 08:48:05;;;;;;;8.43;2.85;;;20.00;99.90;;;;;;5926027;23;45411;-54
2023/10/03 08:50:46;;;;;;;8.20;3.03;;;19.90;99.90;;;;;;5951471;23;44796;-54
2023/10/03 08:53:27;;;;;;;7.60;2.95;;;20.00;99.90;;;;;;5949844;23;45179;-54
2023/10/03 08:55:58;;;;;;;12.43;3.47;;;20.00;99.90;;;;;;5899361;23;44809;-54
2023/10/03 08:58:27;;;;;;;11.30;3.22;;;20.00;99.90;;;;;;5933992;23;46369;-54
2023/10/03 09:01:17;;;;;;;7.68;3.45;;;19.90;99.90;;;;;;5968311;23;44679;-54
2023/10/03 09:03:59;;;;;;;10.63;2.97;;;19.90;99.90;;;;;;5920306;23;44900;-54
2023/10/03 09:06:28;;;;;;;14.10;3.25;;;19.90;99.90;;;;;;5925628;23;45087;-54
2023/10/03 09:09:08;;;;;;;6.53;2.90;;;19.90;99.90;;;;;;5989208;23;45947;-54
2023/10/03 09:11:36;;;;;;;9.82;3.72;;;20.00;99.90;;;;;;5891801;23;44709;-54
2023/10/03 09:14:04;;;;;;;6.28;2.55;;;20.00;99.90;;;;;;5913491;23;45005;-54
2023/10/03 09:16:59;;;;;;;10.80;3.42;;;20.00;99.90;;;;;;5962338;23;44728;-54
2023/10/03 09:19:44;;;;;;;12.13;3.25;;;20.00;99.90;;;;;;5935714;23;45645;-54
2023/10/03 09:22:37;;;;;;;7.10;2.88;;;20.10;99.90;;;;;;5912825;23;45008;-54
2023/10/03 09:25:12;;;;;;;9.82;2.90;;;20.20;99.90;;;;;;5922369;23;45215;-54
2023/10/03 09:28:04;;;;;;;12.73;3.42;;;20.20;99.90;;;;;;5934430;23;44948;-54
2023/10/03 09:30:46;;;;;;;8.50;2.80;;;20.20;99.90;;;;;;5932732;23;46025;-54
2023/10/03 09:33:31;;;;;;;8.25;2.83;;;20.10;99.90;;;;;;5974194;23;44845;-54
2023/10/03 09:36:11;;;;;;;13.48;3.30;;;20.10;99.90;;;;;;5900006;23;44759;-54
2023/10/03 09:42:03;;;;;;;6.53;2.75;;;20.10;99.90;;;;;;5885102;23;45096;-54
2023/10/03 09:44:57;;;;;;;13.60;3.15;;;20.10;99.90;;;;;;5892377;23;44799;-54
2023/10/03 09:47:30;;;;;;;20.45;2.90;;;20.10;99.90;;;;;;5938704;23;44721;-54
2023/10/03 09:50:03;;;;;;;15.25;3.45;;;20.10;99.90;;;;;;5893583;23;44934;-54
2023/10/03 09:53:01;;;;;;;15.95;2.97;;;20.10;99.90;;;;;;5904553;23;45710;-54
2023/10/03 09:55:41;;;;;;;10.05;3.10;;;20.10;99.90;;;;;;5952968;23;44666;-54
2023/10/03 09:58:10;;;;;;;10.98;3.05;;;20.10;99.90;;;;;;5922091;23;44863;-54
2023/10/03 10:00:53;;;;;;;12.55;2.83;;;20.10;99.90;;;;;;5935196;23;44768;-54
2023/10/03 10:03:28;;;;;;;14.27;3.03;;;20.10;99.90;;;;;;5917270;23;46349;-54
2023/10/03 10:06:22;;;;;;;13.63;2.90;;;20.10;99.90;;;;;;5922549;23;44751;-54
2023/10/03 10:09:13;;;;;;;7.40;2.97;;;20.10;99.90;;;;;;5943853;23;44610;-54
2023/10/03 10:12:19;;;;;;;9.35;2.83;;;20.10;99.90;;;;;;5915871;23;45234;-54
2023/10/03 10:15:21;;;;;;;16.15;3.13;;;20.10;99.90;;;;;;5891763;23;45886;-54
2023/10/03 10:17:55;;;;;;;13.40;3.40;;;20.00;99.90;;;;;;5884300;23;45131;-54
2023/10/03 10:20:37;;;;;;;10.32;2.83;;;20.00;99.90;;;;;;5918590;23;44985;-54
2023/10/03 10:23:13;;;;;;;10.13;2.92;;;19.90;99.90;;;;;;5892968;23;44976;-54
2023/10/03 10:25:43;;;;;;;12.18;3.20;;;19.80;99.90;;;;;;5923760;23;45900;-54
2023/10/03 10:28:20;;;;;;;12.80;3.22;;;19.80;99.90;;;;;;5875713;23;44827;-54
2023/10/03 10:31:25;;;;;;;40.92;5.88;;;19.70;99.90;;;;;;5870466;23;44854;-54
2023/10/03 10:34:35;;;;;;;52.33;5.63;;;19.00;99.90;;;;;;5865918;23;44902;-55
2023/10/03 10:37:22;;;;;;;16.00;5.03;;;18.20;99.90;;;;;;5849417;23;46057;-55
2023/10/03 10:40:35;;;;;;;15.35;5.32;;;17.70;99.90;;;;;;5885644;23;45390;-55
2023/10/03 10:43:16;;;;;;;23.33;6.00;;;17.70;99.90;;;;;;5859173;23;44706;-54
2023/10/03 10:45:49;;;;;;;17.02;6.32;;;17.60;99.90;;;;;;5896383;23;45300;-54
2023/10/03 10:48:39;;;;;;;18.10;6.95;;;17.80;99.90;;;;;;5883701;23;45711;-54
2023/10/03 10:51:12;;;;;;;22.92;7.63;;;17.70;99.90;;;;;;5903921;23;44654;-54
2023/10/03 10:53:46;;;;;;;22.08;7.40;;;17.80;99.90;;;;;;5904497;23;45155;-54
2023/10/03 10:56:28;;;;;;;15.25;7.70;;;17.80;99.90;;;;;;5901677;23;44947;-54
2023/10/03 11:02:43;;;;;;;15.30;7.93;;;17.90;99.90;;;;;;5822104;23;44645;-54
2023/10/03 11:05:14;;;;;;;15.43;7.70;;;18.00;99.90;;;;;;5928937;23;45163;-54
2023/10/03 11:07:49;;;;;;;14.15;7.65;;;18.10;99.90;;;;;;5881038;23;44978;-54
2023/10/03 11:10:21;;;;;;;12.23;7.47;;;18.20;99.90;;;;;;5926718;23;45585;-54
2023/10/03 11:12:58;;;;;;;16.80;8.35;;;18.20;99.90;;;;;;5884621;23;44836;-54
2023/10/03 11:15:47;;;;;;;16.98;8.32;;;18.20;99.90;;;;;;5919877;23;45368;-54
2023/10/03 11:18:16;;;;;;;14.60;7.28;;;18.20;99.90;;;;;;5930181;23;44968;-54
2023/10/03 11:20:56;;;;;;;13.43;7.22;;;18.00;99.90;;;;;;5914666;23;45838;-54
2023/10/03 11:23:42;;;;;;;8.55;4.72;;;17.90;99.90;;;;;;5898224;23;44720;-54
2023/10/03 11:26:12;;;;;;;5.95;2.33;;;17.60;99.90;;;;;;5893208;23;44844;-54
2023/10/03 11:28:51;;;;;;;8.88;2.38;;;17.30;99.90;;;;;;5907569;23;45004;-54
2023/10/03 11:31:21;;;;;;;7.07;1.60;;;17.00;99.90;;;;;;5927119;23;45750;-54
2023/10/03 11:34:07;;;;;;;8.55;2.22;;;16.80;99.90;;;;;;5934051;23;44721;-54
2023/10/03 11:36:54;;;;;;;8.55;2.05;;;16.80;99.90;;;;;;5899063;23;44854;-54
2023/10/03 11:39:23;;;;;;;5.70;1.77;;;16.90;99.90;;;;;;5923736;23;44710;-54
2023/10/03 11:41:53;;;;;;;7.18;1.63;;;17.00;99.90;;;;;;5921971;23;45233;-54
2023/10/03 11:44:22;;;;;;;4.63;1.80;;;16.90;99.90;;;;;;5954765;23;45329;-54
2023/10/03 11:46:52;;;;;;;8.10;1.90;;;16.90;99.90;;;;;;5917037;23;44857;-54
2023/10/03 11:49:24;;;;;;;5.97;1.23;;;17.00;99.90;;;;;;5915838;23;44846;-54
2023/10/03 11:51:57;;;;;;;6.72;1.73;;;16.70;99.90;;;;;;5902214;23;45482;-54
2023/10/03 11:54:23;;;;;;;4.68;1.33;;;17.00;99.90;;;;;;5899315;23;44654;-54
2023/10/03 11:57:03;;;;;;;4.63;1.20;;;17.00;99.90;;;;;;5944594;23;44836;-54
2023/10/03 11:59:43;;;;;;;4.00;1.15;;;16.80;99.90;;;;;;5935922;23;44748;-54
2023/10/03 12:02:12;;;;;;;4.95;1.50;;;16.60;99.90;;;;;;5913562;23;45105;-54
2023/10/03 12:04:41;;;;;;;5.25;1.40;;;16.60;99.90;;;;;;5903796;23;44822;-54
2023/10/03 12:07:11;;;;;;;5.18;1.08;;;16.70;99.90;;;;;;5918408;23;44797;-54
2023/10/03 12:09:39;;;;;;;3.28;0.90;;;16.70;99.90;;;;;;5941118;23;45030;-54
2023/10/03 12:12:06;;;;;;;2.13;1.10;;;16.70;99.90;;;;;;5914454;23;45921;-54
2023/10/03 12:14:35;;;;;;;8.50;1.17;;;17.00;99.90;;;;;;5912828;23;45142;-54
2023/10/03 12:17:14;;;;;;;4.97;1.17;;;16.90;99.90;;;;;;5904957;23;44752;-54
2023/10/03 12:22:39;;;;;;;1.98;0.80;;;17.10;99.90;;;;;;5906650;23;45110;-54
2023/10/03 12:25:10;;;;;;;4.43;1.00;;;17.10;99.90;;;;;;5923964;23;44857;-54
2023/10/03 12:27:51;;;;;;;4.68;0.90;;;17.10;99.90;;;;;;5946283;23;44750;-54
2023/10/03 12:30:35;;;;;;;2.85;1.13;;;17.10;99.90;;;;;;5930518;23;44834;-54
2023/10/03 12:33:04;;;;;;;8.40;1.17;;;17.10;99.90;;;;;;5957906;23;46415;-54
2023/10/03 12:35:46;;;;;;;1.88;0.57;;;17.00;99.90;;;;;;5879416;23;44795;-55
2023/10/03 12:38:26;;;;;;;6.63;0.70;;;16.70;99.90;;;;;;5930178;23;44844;-55
2023/10/03 12:41:05;;;;;;;25.73;2.70;;;16.60;99.90;;;;;;5903524;23;44799;-54
2023/10/03 12:43:48;;;;;;;15.15;1.30;;;16.60;99.90;;;;;;5883203;23;45163;-55
2023/10/03 12:46:16;;;;;;;6.88;0.88;;;16.50;99.90;;;;;;5937728;23;44491;-55
2023/10/03 12:48:58;;;;;;;3.60;1.20;;;16.80;99.90;;;;;;5897578;23;44791;-55
2023/10/03 12:54:24;;;;;;;5.43;0.77;;;17.20;99.90;;;;;;5914969;23;45299;-55
2023/10/03 12:57:03;;;;;;;1.80;0.55;;;17.40;99.90;;;;;;5905337;23;44999;-55
2023/10/03 12:59:30;;;;;;;3.88;0.82;;;17.50;99.90;;;;;;5920319;23;45234;-55
2023/10/03 13:02:12;;;;;;;2.78;0.70;;;17.40;99.90;;;;;;5954792;23;44989;-55
2023/10/03 13:05:05;;;;;;;4.88;0.73;;;17.50;99.90;;;;;;5927483;23;45237;-55
2023/10/03 13:07:45;;;;;;;2.78;0.90;;;17.40;99.90;;;;;;5937479;23;45327;-55
2023/10/03 13:10:14;;;;;;;5.93;1.10;;;17.20;99.90;;;;;;5884919;23;44564;-55
2023/10/03 13:12:43;;;;;;;2.97;1.10;;;17.10;99.90;;;;;;5913805;23;44979;-55
2023/10/03 13:15:32;;;;;;;7.90;1.55;;;17.00;99.90;;;;;;5901733;23;46591;-55
2023/10/03 13:18:01;;;;;;;5.47;1.45;;;17.00;99.90;;;;;;5889969;23;45060;-55
2023/10/03 13:21:06;;;;;;;6.75;1.25;;;16.70;99.90;;;;;;5973593;23;44719;-55
2023/10/03 13:23:37;;;;;;;7.72;1.20;;;16.70;99.90;;;;;;5923997;23;45252;-55
2023/10/03 13:26:05;;;;;;;7.68;1.58;;;16.50;99.90;;;;;;5899867;23;46324;-55
2023/10/03 13:28:33;;;;;;;1.95;1.10;;;16.50;99.90;;;;;;5889888;23;44799;-55
2023/10/03 13:31:27;;;;;;;6.57;1.27;;;16.80;99.90;;;;;;5917687;23;44836;-55
2023/10/03 13:33:56;;;;;;;7.50;1.80;;;16.60;99.90;;;;;;5905204;23;44731;-55
2023/10/03 13:36:33;;;;;;;7.65;1.80;;;16.70;99.90;;;;;;5885718;23;45235;-55
2023/10/03 13:39:14;;;;;;;7.50;1.45;;;16.90;99.90;;;;;;5921611;23;44794;-55
2023/10/03 13:41:43;;;;;;;2.85;1.40;;;16.80;99.90;;;;;;5906184;23;45214;-55
2023/10/03 13:44:35;;;;;;;4.55;1.80;;;16.80;99.90;;;;;;5935854;23;44941;-55
2023/10/03 13:47:30;;;;;;;5.13;1.50;;;16.70;99.90;;;;;;5956706;23;45976;-55
2023/10/03 13:50:09;;;;;;;8.63;1.58;;;16.60;99.90;;;;;;5893092;23;44794;-55
2023/10/03 13:52:43;;;;;;;5.75;1.98;;;16.60;99.90;;;;;;5935586;23;45049;-55
2023/10/03 13:55:28;;;;;;;4.65;1.23;;;16.60;99.90;;;;;;5894529;23;45373;-55
2023/10/03 14:01:04;;;;;;;8.23;1.38;;;16.80;99.90;;;;;;5946360;23;44943;-55